Terminal Aerodrome Forecast
Issued by NWS Riverton, WY

Home | Current Version | Previous Version | Text Only | Print | Product List | Glossary On
Versions: 1 2 3 4 5 6 7 8 9 10 11 12
000
FTUS45 KRIW 190500
TAFRIW
TAF
KRIW 190527Z 1906/2006 31011KT P6SM SCT250
     FM191500 VRB05KT P6SM SCT250
     FM192100 25010KT P6SM FEW120 SCT250
     FM200200 29010KT P6SM SKC=

USA.gov is the U.S. government's official web portal to all federal, state and local government web resources and services.